sensor_id;sensor_type;location;lat;lon;timestamp;pressure;altitude;pressure_sealevel;temperature;humidity
38852;BME280;24605;50.092;9.182;2023-05-20T00:00:16;98276.47;;;11.08;93.37
38852;BME280;24605;50.092;9.182;2023-05-20T00:02:43;98275.81;;;11.06;94.42
38852;BME280;24605;50.092;9.182;2023-05-20T00:05:09;98271.88;;;11.10;94.12
38852;BME280;24605;50.092;9.182;2023-05-20T00:07:36;98268.09;;;11.13;93.85
38852;BME280;24605;50.092;9.182;2023-05-20T00:10:02;98263.50;;;11.15;94.01
38852;BME280;24605;50.092;9.182;2023-05-20T00:12:30;98259.88;;;11.16;94.40
38852;BME280;24605;50.092;9.182;2023-05-20T00:14:57;98258.78;;;11.10;94.41
38852;BME280;24605;50.092;9.182;2023-05-20T00:17:23;98252.69;;;11.02;95.53
38852;BME280;24605;50.092;9.182;2023-05-20T00:19:52;98256.63;;;11.06;95.75
38852;BME280;24605;50.092;9.182;2023-05-20T00:22:19;98256.63;;;11.06;96.11
38852;BME280;24605;50.092;9.182;2023-05-20T00:24:45;98250.72;;;11.04;95.74
38852;BME280;24605;50.092;9.182;2023-05-20T00:27:12;98253.84;;;10.99;96.34
38852;BME280;24605;50.092;9.182;2023-05-20T00:29:40;98256.47;;;10.99;97.30
38852;BME280;24605;50.092;9.182;2023-05-20T00:32:06;98257.28;;;11.08;97.02
38852;BME280;24605;50.092;9.182;2023-05-20T00:34:33;98260.56;;;11.10;96.83
38852;BME280;24605;50.092;9.182;2023-05-20T00:36:59;98251.88;;;11.18;97.24
38852;BME280;24605;50.092;9.182;2023-05-20T00:39:26;98257.13;;;11.26;96.81
38852;BME280;24605;50.092;9.182;2023-05-20T00:41:54;98250.53;;;11.30;96.73
38852;BME280;24605;50.092;9.182;2023-05-20T00:44:24;98244.28;;;11.48;95.97
38852;BME280;24605;50.092;9.182;2023-05-20T00:46:53;98246.38;;;11.60;94.94
38852;BME280;24605;50.092;9.182;2023-05-20T00:49:20;98240.13;;;11.62;95.11
38852;BME280;24605;50.092;9.182;2023-05-20T00:51:48;98242.75;;;11.70;94.52
38852;BME280;24605;50.092;9.182;2023-05-20T00:54:14;98230.47;;;11.62;95.01
38852;BME280;24605;50.092;9.182;2023-05-20T00:56:42;98238.31;;;11.70;94.90
38852;BME280;24605;50.092;9.182;2023-05-20T00:59:08;98234.22;;;11.68;94.95
38852;BME280;24605;50.092;9.182;2023-05-20T01:01:35;98240.44;;;11.75;94.40
38852;BME280;24605;50.092;9.182;2023-05-20T01:04:03;98238.81;;;11.74;95.05
38852;BME280;24605;50.092;9.182;2023-05-20T01:06:29;98244.84;;;11.74;94.83
38852;BME280;24605;50.092;9.182;2023-05-20T01:08:57;98236.84;;;11.76;94.78
38852;BME280;24605;50.092;9.182;2023-05-20T01:11:27;98252.94;;;11.65;95.58
38852;BME280;24605;50.092;9.182;2023-05-20T01:13:56;98244.72;;;11.59;96.57
38852;BME280;24605;50.092;9.182;2023-05-20T01:16:25;98243.63;;;11.54;97.59
38852;BME280;24605;50.092;9.182;2023-05-20T01:18:54;98236.34;;;11.64;97.21
38852;BME280;24605;50.092;9.182;2023-05-20T01:21:22;98229.84;;;11.52;98.14
38852;BME280;24605;50.092;9.182;2023-05-20T01:23:51;98227.19;;;11.60;98.12
38852;BME280;24605;50.092;9.182;2023-05-20T01:26:17;98220.25;;;11.67;97.84
38852;BME280;24605;50.092;9.182;2023-05-20T01:28:45;98212.91;;;11.54;98.78
38852;BME280;24605;50.092;9.182;2023-05-20T01:31:15;98222.41;;;11.64;98.34
38852;BME280;24605;50.092;9.182;2023-05-20T01:33:43;98214.03;;;11.68;98.06
38852;BME280;24605;50.092;9.182;2023-05-20T01:36:11;98215.81;;;11.76;97.63
38852;BME280;24605;50.092;9.182;2023-05-20T01:38:38;98213.59;;;11.96;95.97
38852;BME280;24605;50.092;9.182;2023-05-20T01:41:08;98207.91;;;11.84;96.88
38852;BME280;24605;50.092;9.182;2023-05-20T01:43:35;98222.34;;;11.80;97.45
38852;BME280;24605;50.092;9.182;2023-05-20T01:46:04;98212.34;;;11.75;98.09
38852;BME280;24605;50.092;9.182;2023-05-20T01:48:31;98203.81;;;11.73;98.71
38852;BME280;24605;50.092;9.182;2023-05-20T01:50:58;98206.09;;;11.85;98.14
38852;BME280;24605;50.092;9.182;2023-05-20T01:53:25;98212.50;;;11.82;98.08
38852;BME280;24605;50.092;9.182;2023-05-20T01:55:51;98201.16;;;11.90;97.96
38852;BME280;24605;50.092;9.182;2023-05-20T01:58:19;98202.94;;;11.89;97.75
38852;BME280;24605;50.092;9.182;2023-05-20T02:00:46;98203.78;;;11.90;97.52
38852;BME280;24605;50.092;9.182;2023-05-20T02:03:12;98194.91;;;11.83;97.76
38852;BME280;24605;50.092;9.182;2023-05-20T02:05:39;98193.59;;;11.87;98.40
38852;BME280;24605;50.092;9.182;2023-05-20T02:08:05;98192.69;;;11.71;99.41
38852;BME280;24605;50.092;9.182;2023-05-20T02:10:32;98197.25;;;11.78;99.33
38852;BME280;24605;50.092;9.182;2023-05-20T02:12:58;98195.00;;;11.58;100.00
38852;BME280;24605;50.092;9.182;2023-05-20T02:15:26;98186.16;;;11.59;100.00
38852;BME280;24605;50.092;9.182;2023-05-20T02:17:52;98190.47;;;11.43;100.00
38852;BME280;24605;50.092;9.182;2023-05-20T02:20:19;98196.34;;;11.62;100.00
38852;BME280;24605;50.092;9.182;2023-05-20T02:22:45;98189.72;;;11.66;100.00
38852;BME280;24605;50.092;9.182;2023-05-20T02:25:12;98178.47;;;11.57;100.00
38852;BME280;24605;50.092;9.182;2023-05-20T02:27:39;98191.44;;;11.51;100.00
38852;BME280;24605;50.092;9.182;2023-05-20T02:30:06;98182.41;;;11.53;100.00
38852;BME280;24605;50.092;9.182;2023-05-20T02:32:34;98174.34;;;11.63;100.00
38852;BME280;24605;50.092;9.182;2023-05-20T02:35:01;98178.44;;;11.66;100.00
38852;BME280;24605;50.092;9.182;2023-05-20T02:37:27;98181.81;;;11.74;100.00
38852;BME280;24605;50.092;9.182;2023-05-20T02:39:54;98181.06;;;11.66;100.00
38852;BME280;24605;50.092;9.182;2023-05-20T02:42:20;98182.72;;;11.58;100.00
38852;BME280;24605;50.092;9.182;2023-05-20T02:44:47;98174.97;;;11.65;100.00
38852;BME280;24605;50.092;9.182;2023-05-20T02:47:13;98181.72;;;11.68;100.00
38852;BME280;24605;50.092;9.182;2023-05-20T02:49:41;98177.59;;;11.65;100.00
38852;BME280;24605;50.092;9.182;2023-05-20T02:52:07;98179.13;;;11.43;100.00
38852;BME280;24605;50.092;9.182;2023-05-20T02:54:34;98179.59;;;11.55;100.00
38852;BME280;24605;50.092;9.182;2023-05-20T02:57:00;98175.06;;;11.40;100.00
38852;BME280;24605;50.092;9.182;2023-05-20T02:59:27;98173.25;;;11.41;100.00
38852;BME280;24605;50.092;9.182;2023-05-20T03:01:53;98171.78;;;11.38;100.00
38852;BME280;24605;50.092;9.182;2023-05-20T03:04:20;98161.78;;;11.34;100.00
38852;BME280;24605;50.092;9.182;2023-05-20T03:06:48;98161.41;;;11.45;100.00
38852;BME280;24605;50.092;9.182;2023-05-20T03:09:16;98106.25;;;11.05;100.00
38852;BME280;24605;50.092;9.182;2023-05-20T03:11:43;98122.28;;;11.27;100.00
38852;BME280;24605;50.092;9.182;2023-05-20T03:14:10;98166.16;;;11.50;100.00
38852;BME280;24605;50.092;9.182;2023-05-20T03:16:36;98163.84;;;11.55;100.00
38852;BME280;24605;50.092;9.182;2023-05-20T03:19:03;98166.97;;;11.58;100.00
38852;BME280;24605;50.092;9.182;2023-05-20T03:21:29;98158.06;;;11.59;100.00
38852;BME280;24605;50.092;9.182;2023-05-20T03:23:58;98158.06;;;11.59;100.00
38852;BME280;24605;50.092;9.182;2023-05-20T03:26:24;98161.34;;;11.62;100.00
38852;BME280;24605;50.092;9.182;2023-05-20T03:28:51;98162.19;;;11.62;100.00
38852;BME280;24605;50.092;9.182;2023-05-20T03:31:18;98160.50;;;11.69;100.00
38852;BME280;24605;50.092;9.182;2023-05-20T03:33:45;98161.97;;;11.72;100.00
38852;BME280;24605;50.092;9.182;2023-05-20T03:36:11;98154.06;;;11.80;100.00
38852;BME280;24605;50.092;9.182;2023-05-20T03:38:38;98160.00;;;11.74;100.00
38852;BME280;24605;50.092;9.182;2023-05-20T03:41:05;98159.97;;;11.82;100.00
38852;BME280;24605;50.092;9.182;2023-05-20T03:43:32;98155.19;;;11.86;100.00
38852;BME280;24605;50.092;9.182;2023-05-20T03:45:58;98155.03;;;11.79;100.00
38852;BME280;24605;50.092;9.182;2023-05-20T03:48:25;98160.00;;;11.74;100.00
38852;BME280;24605;50.092;9.182;2023-05-20T03:50:52;98155.38;;;11.84;100.00
38852;BME280;24605;50.092;9.182;2023-05-20T03:53:18;98157.28;;;11.99;100.00
38852;BME280;24605;50.092;9.182;2023-05-20T03:55:45;98160.50;;;12.09;100.00
38852;BME280;24605;50.092;9.182;2023-05-20T03:58:13;98141.69;;;11.97;100.00
38852;BME280;24605;50.092;9.182;2023-05-20T04:00:39;98148.88;;;12.03;100.00
38852;BME280;24605;50.092;9.182;2023-05-20T04:03:06;98160.28;;;12.19;100.00
38852;BME280;24605;50.092;9.182;2023-05-20T04:05:33;98161.75;;;12.21;100.00
38852;BME280;24605;50.092;9.182;2023-05-20T04:08:00;98157.22;;;12.07;100.00
38852;BME280;24605;50.092;9.182;2023-05-20T04:10:29;98167.69;;;12.15;100.00
38852;BME280;24605;50.092;9.182;2023-05-20T04:12:56;98174.28;;;11.80;100.00
38852;BME280;24605;50.092;9.182;2023-05-20T04:15:24;98154.47;;;12.00;100.00
38852;BME280;24605;50.092;9.182;2023-05-20T04:17:50;98151.63;;;11.79;100.00
38852;BME280;24605;50.092;9.182;2023-05-20T04:20:17;98162.56;;;12.22;100.00
38852;BME280;24605;50.092;9.182;2023-05-20T04:22:44;98166.84;;;12.23;100.00
38852;BME280;24605;50.092;9.182;2023-05-20T04:25:11;98162.69;;;12.05;100.00
38852;BME280;24605;50.092;9.182;2023-05-20T04:27:38;98174.25;;;12.19;100.00
38852;BME280;24605;50.092;9.182;2023-05-20T04:30:05;98164.78;;;12.10;100.00
38852;BME280;24605;50.092;9.182;2023-05-20T04:32:33;98168.75;;;12.29;100.00
38852;BME280;24605;50.092;9.182;2023-05-20T04:35:00;98175.09;;;12.43;100.00
38852;BME280;24605;50.092;9.182;2023-05-20T04:37:27;98164.97;;;12.32;100.00
38852;BME280;24605;50.092;9.182;2023-05-20T04:39:53;98166.41;;;12.34;100.00
38852;BME280;24605;50.092;9.182;2023-05-20T04:42:20;98167.06;;;12.36;100.00
38852;BME280;24605;50.092;9.182;2023-05-20T04:44:46;98167.38;;;12.42;100.00
38852;BME280;24605;50.092;9.182;2023-05-20T04:47:13;98168.31;;;12.49;100.00
38852;BME280;24605;50.092;9.182;2023-05-20T04:49:41;98168.00;;;12.67;100.00
38852;BME280;24605;50.092;9.182;2023-05-20T04:52:07;98159.41;;;12.73;100.00
38852;BME280;24605;50.092;9.182;2023-05-20T04:54:34;98163.25;;;12.62;100.00
38852;BME280;24605;50.092;9.182;2023-05-20T04:57:00;98167.94;;;12.52;100.00
38852;BME280;24605;50.092;9.182;2023-05-20T04:59:27;98131.09;;;12.14;100.00
38852;BME280;24605;50.092;9.182;2023-05-20T05:01:53;98169.75;;;12.51;100.00
38852;BME280;24605;50.092;9.182;2023-05-20T05:04:20;98148.06;;;12.26;100.00
38852;BME280;24605;50.092;9.182;2023-05-20T05:06:48;98164.25;;;12.15;100.00
38852;BME280;24605;50.092;9.182;2023-05-20T05:09:15;98172.25;;;12.21;100.00
38852;BME280;24605;50.092;9.182;2023-05-20T05:11:41;98162.13;;;12.42;100.00
38852;BME280;24605;50.092;9.182;2023-05-20T05:14:07;98154.75;;;12.37;100.00
38852;BME280;24605;50.092;9.182;2023-05-20T05:16:34;98165.75;;;12.41;100.00
38852;BME280;24605;50.092;9.182;2023-05-20T05:19:01;98153.56;;;12.63;100.00
38852;BME280;24605;50.092;9.182;2023-05-20T05:21:27;98152.16;;;12.52;100.00
38852;BME280;24605;50.092;9.182;2023-05-20T05:23:56;98147.81;;;12.82;100.00
38852;BME280;24605;50.092;9.182;2023-05-20T05:26:23;98154.34;;;12.87;100.00
38852;BME280;24605;50.092;9.182;2023-05-20T05:28:50;98147.94;;;12.66;100.00
38852;BME280;24605;50.092;9.182;2023-05-20T05:31:17;98153.63;;;12.78;100.00
38852;BME280;24605;50.092;9.182;2023-05-20T05:33:43;98143.13;;;12.54;100.00
38852;BME280;24605;50.092;9.182;2023-05-20T05:36:09;98151.69;;;12.72;100.00
38852;BME280;24605;50.092;9.182;2023-05-20T05:38:36;98141.13;;;12.95;100.00
38852;BME280;24605;50.092;9.182;2023-05-20T05:41:04;98144.97;;;13.07;100.00
38852;BME280;24605;50.092;9.182;2023-05-20T05:43:30;98136.06;;;13.08;100.00
38852;BME280;24605;50.092;9.182;2023-05-20T05:45:57;98143.78;;;13.25;100.00
38852;BME280;24605;50.092;9.182;2023-05-20T05:48:23;98144.44;;;13.42;100.00
38852;BME280;24605;50.092;9.182;2023-05-20T05:50:49;98139.34;;;13.25;100.00
38852;BME280;24605;50.092;9.182;2023-05-20T05:53:16;98147.16;;;13.48;100.00
38852;BME280;24605;50.092;9.182;2023-05-20T05:55:44;98136.25;;;13.37;100.00
38852;BME280;24605;50.092;9.182;2023-05-20T05:58:12;98133.16;;;13.33;100.00
38852;BME280;24605;50.092;9.182;2023-05-20T06:00:39;98132.34;;;13.32;100.00
38852;BME280;24605;50.092;9.182;2023-05-20T06:03:05;98123.28;;;13.20;100.00
38852;BME280;24605;50.092;9.182;2023-05-20T06:05:32;98133.91;;;13.42;100.00
38852;BME280;24605;50.092;9.182;2023-05-20T06:07:58;98125.91;;;13.65;100.00
38852;BME280;24605;50.092;9.182;2023-05-20T06:10:25;98109.09;;;13.66;99.29
38852;BME280;24605;50.092;9.182;2023-05-20T06:12:51;98122.00;;;13.98;97.96
38852;BME280;24605;50.092;9.182;2023-05-20T06:15:19;98134.19;;;13.99;98.03
38852;BME280;24605;50.092;9.182;2023-05-20T06:17:46;98137.72;;;14.49;95.75
38852;BME280;24605;50.092;9.182;2023-05-20T06:20:12;98130.69;;;14.78;93.28
38852;BME280;24605;50.092;9.182;2023-05-20T06:22:39;98116.84;;;14.98;92.78
38852;BME280;24605;50.092;9.182;2023-05-20T06:25:06;98134.28;;;14.99;91.38
38852;BME280;24605;50.092;9.182;2023-05-20T06:27:33;98118.78;;;14.89;91.29
38852;BME280;24605;50.092;9.182;2023-05-20T06:30:00;98125.56;;;14.98;90.17
38852;BME280;24605;50.092;9.182;2023-05-20T06:32:28;98130.88;;;15.05;91.25
38852;BME280;24605;50.092;9.182;2023-05-20T06:34:55;98136.53;;;15.02;91.21
38852;BME280;24605;50.092;9.182;2023-05-20T06:37:21;98131.53;;;15.07;91.88
38852;BME280;24605;50.092;9.182;2023-05-20T06:39:48;98131.09;;;15.45;89.08
38852;BME280;24605;50.092;9.182;2023-05-20T06:42:18;98121.91;;;15.76;86.85
38852;BME280;24605;50.092;9.182;2023-05-20T06:44:44;98120.03;;;15.63;88.11
38852;BME280;24605;50.092;9.182;2023-05-20T06:47:13;98115.66;;;15.91;86.22
38852;BME280;24605;50.092;9.182;2023-05-20T06:49:41;98115.56;;;15.71;85.92
38852;BME280;24605;50.092;9.182;2023-05-20T06:52:07;98111.81;;;15.93;86.41
38852;BME280;24605;50.092;9.182;2023-05-20T06:54:34;98108.59;;;16.05;87.52
38852;BME280;24605;50.092;9.182;2023-05-20T06:57:04;98108.22;;;16.75;82.41
38852;BME280;24605;50.092;9.182;2023-05-20T06:59:31;98120.84;;;16.86;81.27
38852;BME280;24605;50.092;9.182;2023-05-20T07:01:57;98115.34;;;17.01;80.48
38852;BME280;24605;50.092;9.182;2023-05-20T07:04:24;98114.72;;;17.06;80.33
38852;BME280;24605;50.092;9.182;2023-05-20T07:06:52;98123.19;;;17.48;77.74
38852;BME280;24605;50.092;9.182;2023-05-20T07:09:18;98118.72;;;17.94;76.80
38852;BME280;24605;50.092;9.182;2023-05-20T07:11:45;98110.16;;;17.99;73.87
38852;BME280;24605;50.092;9.182;2023-05-20T07:14:11;98107.75;;;17.84;73.78
38852;BME280;24605;50.092;9.182;2023-05-20T07:16:38;98105.91;;;17.32;76.06
38852;BME280;24605;50.092;9.182;2023-05-20T07:19:04;98102.84;;;17.35;75.41
38852;BME280;24605;50.092;9.182;2023-05-20T07:21:30;98106.34;;;17.81;73.84
38852;BME280;24605;50.092;9.182;2023-05-20T07:23:58;98102.75;;;18.40;71.10
38852;BME280;24605;50.092;9.182;2023-05-20T07:26:25;98104.97;;;18.68;71.35
38852;BME280;24605;50.092;9.182;2023-05-20T07:28:51;98106.41;;;18.89;68.54
38852;BME280;24605;50.092;9.182;2023-05-20T07:31:17;98105.13;;;18.99;69.16
38852;BME280;24605;50.092;9.182;2023-05-20T07:33:44;98107.75;;;19.42;67.86
38852;BME280;24605;50.092;9.182;2023-05-20T07:36:10;98109.50;;;19.86;66.63
38852;BME280;24605;50.092;9.182;2023-05-20T07:38:37;98103.09;;;19.56;63.43
38852;BME280;24605;50.092;9.182;2023-05-20T07:41:05;98112.94;;;19.86;62.97
38852;BME280;24605;50.092;9.182;2023-05-20T07:43:32;98116.34;;;19.75;63.71
38852;BME280;24605;50.092;9.182;2023-05-20T07:45:58;98105.16;;;19.54;64.51
38852;BME280;24605;50.092;9.182;2023-05-20T07:48:25;98071.91;;;18.64;65.62
38852;BME280;24605;50.092;9.182;2023-05-20T07:50:51;98101.31;;;18.88;67.26
38852;BME280;24605;50.092;9.182;2023-05-20T07:53:18;98100.81;;;18.22;68.23
38852;BME280;24605;50.092;9.182;2023-05-20T07:55:44;98091.53;;;18.06;70.27
38852;BME280;24605;50.092;9.182;2023-05-20T07:58:12;98089.22;;;18.16;70.48
38852;BME280;24605;50.092;9.182;2023-05-20T08:00:39;98091.81;;;17.91;71.49
38852;BME280;24605;50.092;9.182;2023-05-20T08:03:05;98094.38;;;17.59;73.97
38852;BME280;24605;50.092;9.182;2023-05-20T08:05:32;98092.59;;;17.52;73.78
38852;BME280;24605;50.092;9.182;2023-05-20T08:07:58;98092.28;;;17.22;76.38
38852;BME280;24605;50.092;9.182;2023-05-20T08:10:25;98094.44;;;17.45;73.72
38852;BME280;24605;50.092;9.182;2023-05-20T08:12:51;98089.16;;;17.38;73.49
38852;BME280;24605;50.092;9.182;2023-05-20T08:15:19;98102.56;;;17.57;74.24
38852;BME280;24605;50.092;9.182;2023-05-20T08:17:45;98093.13;;;17.16;74.40
38852;BME280;24605;50.092;9.182;2023-05-20T08:20:12;98087.28;;;17.52;73.80
38852;BME280;24605;50.092;9.182;2023-05-20T08:22:39;98088.00;;;17.21;74.59
38852;BME280;24605;50.092;9.182;2023-05-20T08:25:07;98089.03;;;17.20;75.78
38852;BME280;24605;50.092;9.182;2023-05-20T08:27:34;98077.66;;;16.86;78.02
38852;BME280;24605;50.092;9.182;2023-05-20T08:30:01;98087.03;;;17.02;75.20
38852;BME280;24605;50.092;9.182;2023-05-20T08:32:29;98091.47;;;17.21;75.02
38852;BME280;24605;50.092;9.182;2023-05-20T08:34:55;98092.78;;;17.58;73.89
38852;BME280;24605;50.092;9.182;2023-05-20T08:37:22;98086.59;;;17.70;72.64
38852;BME280;24605;50.092;9.182;2023-05-20T08:39:48;98083.84;;;17.91;72.38
38852;BME280;24605;50.092;9.182;2023-05-20T08:42:20;98080.63;;;17.82;71.95
38852;BME280;24605;50.092;9.182;2023-05-20T08:44:47;98079.13;;;17.54;72.91
38852;BME280;24605;50.092;9.182;2023-05-20T08:47:13;98082.72;;;18.12;72.34
38852;BME280;24605;50.092;9.182;2023-05-20T08:49:41;98089.19;;;18.48;70.85
38852;BME280;24605;50.092;9.182;2023-05-20T08:52:10;98088.22;;;18.93;67.37
38852;BME280;24605;50.092;9.182;2023-05-20T08:54:42;98079.69;;;18.33;72.62
38852;BME280;24605;50.092;9.182;2023-05-20T08:57:10;98086.13;;;17.87;75.20
38852;BME280;24605;50.092;9.182;2023-05-20T08:59:39;98089.59;;;17.81;73.24
38852;BME280;24605;50.092;9.182;2023-05-20T09:02:06;98089.69;;;18.06;71.67
38852;BME280;24605;50.092;9.182;2023-05-20T09:04:33;98092.44;;;18.25;71.15
38852;BME280;24605;50.092;9.182;2023-05-20T09:07:01;98083.59;;;18.31;71.96
38852;BME280;24605;50.092;9.182;2023-05-20T09:09:28;98081.97;;;18.30;72.08
38852;BME280;24605;50.092;9.182;2023-05-20T09:11:55;98081.91;;;19.31;67.70
38852;BME280;24605;50.092;9.182;2023-05-20T09:14:22;98089.03;;;19.49;65.47
38852;BME280;24605;50.092;9.182;2023-05-20T09:16:51;98083.44;;;19.39;65.32
38852;BME280;24605;50.092;9.182;2023-05-20T09:19:19;98093.09;;;18.71;67.23
38852;BME280;24605;50.092;9.182;2023-05-20T09:21:45;98096.34;;;18.73;69.06
38852;BME280;24605;50.092;9.182;2023-05-20T09:24:13;98092.50;;;18.94;68.54
38852;BME280;24605;50.092;9.182;2023-05-20T09:26:40;98085.16;;;19.33;66.61
38852;BME280;24605;50.092;9.182;2023-05-20T09:29:07;98071.69;;;19.77;63.76
38852;BME280;24605;50.092;9.182;2023-05-20T09:31:34;98074.28;;;18.91;65.36
38852;BME280;24605;50.092;9.182;2023-05-20T09:34:02;98070.66;;;19.29;63.62
38852;BME280;24605;50.092;9.182;2023-05-20T09:36:31;98079.91;;;19.26;63.93
38852;BME280;24605;50.092;9.182;2023-05-20T09:39:00;98079.09;;;19.26;64.01
38852;BME280;24605;50.092;9.182;2023-05-20T09:41:33;98067.38;;;18.90;65.18
38852;BME280;24605;50.092;9.182;2023-05-20T09:44:02;98069.69;;;19.23;63.86
38852;BME280;24605;50.092;9.182;2023-05-20T09:46:31;98079.09;;;19.26;64.72
38852;BME280;24605;50.092;9.182;2023-05-20T09:48:58;98076.06;;;19.04;65.19
38852;BME280;24605;50.092;9.182;2023-05-20T09:51:25;98087.13;;;18.75;69.31
38852;BME280;24605;50.092;9.182;2023-05-20T09:53:53;98076.94;;;18.22;69.68
38852;BME280;24605;50.092;9.182;2023-05-20T09:56:22;98075.75;;;18.17;70.43
38852;BME280;24605;50.092;9.182;2023-05-20T09:58:52;98081.78;;;17.99;72.71
38852;BME280;24605;50.092;9.182;2023-05-20T10:01:22;98069.34;;;18.00;71.84
38852;BME280;24605;50.092;9.182;2023-05-20T10:03:49;98079.44;;;17.78;71.83
38852;BME280;24605;50.092;9.182;2023-05-20T10:06:30;98072.47;;;17.83;71.58
38852;BME280;24605;50.092;9.182;2023-05-20T10:09:10;98066.66;;;17.61;73.72
38852;BME280;24605;50.092;9.182;2023-05-20T10:11:46;98057.06;;;17.60;74.54
38852;BME280;24605;50.092;9.182;2023-05-20T10:14:27;98067.09;;;17.90;74.38
38852;BME280;24605;50.092;9.182;2023-05-20T10:17:02;98056.81;;;17.75;73.47
38852;BME280;24605;50.092;9.182;2023-05-20T10:19:34;98056.94;;;17.87;74.57
38852;BME280;24605;50.092;9.182;2023-05-20T10:22:02;98058.56;;;17.88;75.01
38852;BME280;24605;50.092;9.182;2023-05-20T10:24:30;98038.00;;;18.41;73.01
38852;BME280;24605;50.092;9.182;2023-05-20T10:26:58;98045.22;;;18.77;71.05
38852;BME280;24605;50.092;9.182;2023-05-20T10:29:28;98038.94;;;18.72;68.93
38852;BME280;24605;50.092;9.182;2023-05-20T10:31:55;98040.31;;;18.56;71.44
38852;BME280;24605;50.092;9.182;2023-05-20T10:34:22;98046.13;;;18.71;69.72
38852;BME280;24605;50.092;9.182;2023-05-20T10:36:57;98039.41;;;18.69;72.11
38852;BME280;24605;50.092;9.182;2023-05-20T10:39:26;98044.81;;;18.55;73.67
38852;BME280;24605;50.092;9.182;2023-05-20T10:42:04;98023.72;;;18.42;71.95
38852;BME280;24605;50.092;9.182;2023-05-20T10:44:40;98030.63;;;18.17;72.18
38852;BME280;24605;50.092;9.182;2023-05-20T10:47:08;98034.41;;;18.03;73.01
38852;BME280;24605;50.092;9.182;2023-05-20T10:49:34;98044.06;;;17.97;74.90
38852;BME280;24605;50.092;9.182;2023-05-20T10:52:01;98036.22;;;18.09;73.99
38852;BME280;24605;50.092;9.182;2023-05-20T10:54:27;98038.31;;;18.00;73.43
38852;BME280;24605;50.092;9.182;2023-05-20T10:56:54;98024.50;;;17.85;73.82
38852;BME280;24605;50.092;9.182;2023-05-20T10:59:21;98029.97;;;17.90;75.18
38852;BME280;24605;50.092;9.182;2023-05-20T11:01:49;98032.50;;;18.61;75.35
38852;BME280;24605;50.092;9.182;2023-05-20T11:04:16;98029.47;;;19.01;72.01
38852;BME280;24605;50.092;9.182;2023-05-20T11:06:49;98019.81;;;18.44;73.30
38852;BME280;24605;50.092;9.182;2023-05-20T11:09:17;98030.22;;;18.64;71.50
38852;BME280;24605;50.092;9.182;2023-05-20T11:11:44;98034.91;;;18.88;70.25
38852;BME280;24605;50.092;9.182;2023-05-20T11:14:11;98022.66;;;18.87;68.60
38852;BME280;24605;50.092;9.182;2023-05-20T11:16:39;98029.44;;;18.83;71.77
38852;BME280;24605;50.092;9.182;2023-05-20T11:19:07;98015.84;;;18.91;69.08
38852;BME280;24605;50.092;9.182;2023-05-20T11:21:41;98018.97;;;18.88;69.44
38852;BME280;24605;50.092;9.182;2023-05-20T11:24:08;98021.84;;;18.86;69.38
38852;BME280;24605;50.092;9.182;2023-05-20T11:26:35;98021.84;;;18.68;69.93
38852;BME280;24605;50.092;9.182;2023-05-20T11:29:02;98014.34;;;19.02;70.33
38852;BME280;24605;50.092;9.182;2023-05-20T11:31:29;98006.94;;;19.22;68.45
38852;BME280;24605;50.092;9.182;2023-05-20T11:33:55;98010.00;;;19.56;65.81
38852;BME280;24605;50.092;9.182;2023-05-20T11:36:23;98011.81;;;18.88;69.68
38852;BME280;24605;50.092;9.182;2023-05-20T11:38:53;98012.28;;;19.04;67.73
38852;BME280;24605;50.092;9.182;2023-05-20T11:41:22;98008.28;;;19.13;68.40
38852;BME280;24605;50.092;9.182;2023-05-20T11:43:55;98003.53;;;19.34;68.50
38852;BME280;24605;50.092;9.182;2023-05-20T11:46:22;98001.78;;;19.28;69.40
38852;BME280;24605;50.092;9.182;2023-05-20T11:48:51;97998.75;;;18.68;71.00
38852;BME280;24605;50.092;9.182;2023-05-20T11:51:23;97976.66;;;18.49;71.87
38852;BME280;24605;50.092;9.182;2023-05-20T11:53:50;97991.72;;;18.74;70.94
38852;BME280;24605;50.092;9.182;2023-05-20T11:56:17;97986.22;;;18.94;70.95
38852;BME280;24605;50.092;9.182;2023-05-20T11:58:43;97979.84;;;18.58;71.84
38852;BME280;24605;50.092;9.182;2023-05-20T12:01:10;97983.47;;;18.82;73.91
38852;BME280;24605;50.092;9.182;2023-05-20T12:03:36;97976.09;;;19.21;70.65
38852;BME280;24605;50.092;9.182;2023-05-20T12:06:03;97984.16;;;18.96;72.29
38852;BME280;24605;50.092;9.182;2023-05-20T12:08:31;97987.00;;;19.13;70.64
38852;BME280;24605;50.092;9.182;2023-05-20T12:10:57;97996.44;;;18.72;70.86
38852;BME280;24605;50.092;9.182;2023-05-20T12:13:23;97993.53;;;19.17;71.94
38852;BME280;24605;50.092;9.182;2023-05-20T12:15:50;97992.66;;;19.66;70.17
38852;BME280;24605;50.092;9.182;2023-05-20T12:18:17;97993.25;;;20.10;66.57
38852;BME280;24605;50.092;9.182;2023-05-20T12:20:43;97991.50;;;19.92;67.50
38852;BME280;24605;50.092;9.182;2023-05-20T12:23:09;97987.44;;;19.90;65.50
38852;BME280;24605;50.092;9.182;2023-05-20T12:25:37;97983.16;;;19.88;67.77
38852;BME280;24605;50.092;9.182;2023-05-20T12:28:04;97984.19;;;19.87;66.45
38852;BME280;24605;50.092;9.182;2023-05-20T12:30:31;97982.84;;;19.66;66.83
38852;BME280;24605;50.092;9.182;2023-05-20T12:32:57;97980.63;;;20.06;67.87
38852;BME280;24605;50.092;9.182;2023-05-20T12:35:25;97968.72;;;20.44;65.35
38852;BME280;24605;50.092;9.182;2023-05-20T12:38:01;97978.38;;;19.79;65.32
38852;BME280;24605;50.092;9.182;2023-05-20T12:40:27;97970.81;;;19.03;67.90
38852;BME280;24605;50.092;9.182;2023-05-20T12:42:55;97971.41;;;19.35;70.14
38852;BME280;24605;50.092;9.182;2023-05-20T12:45:22;97974.31;;;18.78;72.69
38852;BME280;24605;50.092;9.182;2023-05-20T12:47:48;97969.59;;;19.48;70.59
38852;BME280;24605;50.092;9.182;2023-05-20T12:50:16;97968.59;;;20.15;67.10
38852;BME280;24605;50.092;9.182;2023-05-20T12:52:42;97966.97;;;20.61;66.46
38852;BME280;24605;50.092;9.182;2023-05-20T12:55:08;97960.84;;;20.73;65.93
38852;BME280;24605;50.092;9.182;2023-05-20T12:57:38;97961.47;;;21.16;62.98